createdAt,value
2023-03-29T00:00:35.986Z,1.40
2023-03-29T00:03:04.286Z,1.50
2023-03-29T00:05:34.184Z,1.50
2023-03-29T00:08:04.612Z,1.57
2023-03-29T00:10:33.781Z,1.27
2023-03-29T00:13:01.865Z,1.50
2023-03-29T00:15:29.842Z,1.80
2023-03-29T00:17:59.530Z,1.70
2023-03-29T00:20:29.015Z,4.57
2023-03-29T00:22:57.140Z,4.60
2023-03-29T00:25:25.066Z,7.30
2023-03-29T00:27:53.032Z,6.97
2023-03-29T00:30:21.088Z,8.97
2023-03-29T00:32:49.044Z,8.73
2023-03-29T00:35:18.504Z,7.23
2023-03-29T00:37:47.333Z,3.90
2023-03-29T00:40:15.823Z,1.83
2023-03-29T00:42:45.594Z,2.00
2023-03-29T00:45:20.652Z,1.70
2023-03-29T00:47:50.092Z,1.30
2023-03-29T00:50:22.492Z,1.57
2023-03-29T00:52:52.813Z,2.13
2023-03-29T00:55:22.997Z,1.60
2023-03-29T00:57:52.368Z,1.70
2023-03-29T01:00:22.484Z,1.53
2023-03-29T01:02:54.561Z,1.50
2023-03-29T01:05:29.537Z,2.00
2023-03-29T01:08:00.202Z,1.43
2023-03-29T01:10:31.224Z,1.70
2023-03-29T01:13:06.275Z,1.43
2023-03-29T01:15:34.644Z,1.30
2023-03-29T01:18:03.098Z,1.70
2023-03-29T01:20:42.478Z,1.77
2023-03-29T01:23:18.760Z,2.23
2023-03-29T01:25:49.372Z,1.40
2023-03-29T01:28:21.483Z,1.43
2023-03-29T01:30:51.364Z,1.83
2023-03-29T01:33:23.725Z,1.70
2023-03-29T01:35:57.727Z,1.50
2023-03-29T01:38:27.908Z,1.33
2023-03-29T01:40:55.946Z,1.40
2023-03-29T01:43:28.347Z,1.73
2023-03-29T01:46:02.411Z,1.70
2023-03-29T01:48:31.778Z,1.40
2023-03-29T01:51:03.893Z,1.30
2023-03-29T01:53:34.526Z,1.70
2023-03-29T01:56:05.873Z,1.83
2023-03-29T01:58:37.214Z,1.67
2023-03-29T02:01:10.252Z,1.83
2023-03-29T02:03:42.687Z,1.20
2023-03-29T02:06:12.303Z,1.30
2023-03-29T02:08:40.851Z,1.60
2023-03-29T02:11:09.177Z,1.80
2023-03-29T02:13:38.570Z,1.53
2023-03-29T02:16:12.313Z,1.30
2023-03-29T02:18:40.600Z,1.63
2023-03-29T02:21:09.346Z,1.40
2023-03-29T02:23:39.137Z,1.50
2023-03-29T02:26:09.012Z,1.80
2023-03-29T02:28:38.599Z,1.80
2023-03-29T02:31:09.852Z,1.37
2023-03-29T02:33:45.724Z,1.30
2023-03-29T02:36:15.668Z,1.50
2023-03-29T02:38:43.781Z,1.30
2023-03-29T02:41:12.341Z,1.60
2023-03-29T02:43:42.458Z,1.80
2023-03-29T02:46:11.126Z,1.60
2023-03-29T02:48:39.349Z,1.47
2023-03-29T02:51:10.704Z,1.60
2023-03-29T02:53:40.591Z,1.40
2023-03-29T02:56:09.462Z,1.13
2023-03-29T02:58:37.419Z,1.47
2023-03-29T03:01:07.885Z,1.27
2023-03-29T03:03:36.295Z,1.33
2023-03-29T03:06:04.383Z,1.00
2023-03-29T03:08:32.370Z,1.70
2023-03-29T03:11:00.608Z,1.30
2023-03-29T03:13:28.790Z,1.30
2023-03-29T03:15:56.748Z,1.63
2023-03-29T03:18:26.148Z,1.47
2023-03-29T03:20:57.711Z,1.60
2023-03-29T03:23:26.317Z,1.40
2023-03-29T03:25:54.328Z,1.37
2023-03-29T03:28:22.396Z,1.47
2023-03-29T03:30:50.363Z,1.47
2023-03-29T03:33:19.024Z,1.30
2023-03-29T03:35:48.508Z,1.20
2023-03-29T03:38:16.777Z,1.30
2023-03-29T03:40:44.759Z,1.50
2023-03-29T03:43:12.861Z,1.50
2023-03-29T03:45:40.864Z,1.30
2023-03-29T03:48:08.906Z,1.50
2023-03-29T03:50:36.970Z,1.40
2023-03-29T03:53:06.413Z,1.37
2023-03-29T03:55:34.640Z,1.83
2023-03-29T03:58:02.610Z,1.77
2023-03-29T04:00:30.525Z,1.57
2023-03-29T04:02:58.545Z,1.40
2023-03-29T04:05:26.663Z,1.20
2023-03-29T04:07:54.609Z,1.47
2023-03-29T04:10:24.022Z,1.60
2023-03-29T04:12:51.979Z,1.20
2023-03-29T04:15:20.428Z,1.70
2023-03-29T04:17:48.438Z,1.33
2023-03-29T04:20:16.854Z,1.43
2023-03-29T04:22:44.823Z,1.57
2023-03-29T04:25:12.845Z,1.17
2023-03-29T04:27:42.248Z,1.47
2023-03-29T04:30:10.876Z,1.10
2023-03-29T04:32:38.910Z,1.50
2023-03-29T04:35:08.124Z,1.57
2023-03-29T04:37:36.119Z,1.27
2023-03-29T04:40:09.193Z,1.20
2023-03-29T04:42:37.621Z,1.43
2023-03-29T04:45:08.181Z,1.30
2023-03-29T04:47:36.915Z,1.30
2023-03-29T04:50:05.329Z,1.30
2023-03-29T04:52:33.510Z,1.43
2023-03-29T04:55:01.667Z,1.47
2023-03-29T04:57:29.663Z,1.13
2023-03-29T04:59:57.717Z,1.43
2023-03-29T05:02:27.394Z,1.70
2023-03-29T05:04:55.361Z,1.50
2023-03-29T05:07:23.326Z,1.70
2023-03-29T05:09:51.304Z,1.70
2023-03-29T05:12:19.231Z,1.57
2023-03-29T05:14:47.300Z,1.27
2023-03-29T05:17:15.303Z,1.60
2023-03-29T05:19:44.664Z,1.40
2023-03-29T05:22:12.672Z,1.40
2023-03-29T05:24:40.646Z,1.63
2023-03-29T05:27:08.599Z,1.40
2023-03-29T05:29:36.867Z,2.00
2023-03-29T05:32:05.213Z,1.20
2023-03-29T05:34:33.184Z,1.57
2023-03-29T05:37:02.517Z,1.60
2023-03-29T05:39:31.628Z,1.30
2023-03-29T05:42:00.090Z,1.67
2023-03-29T05:44:28.117Z,1.60
2023-03-29T05:46:57.333Z,1.67
2023-03-29T05:49:25.740Z,1.73
2023-03-29T05:51:57.076Z,1.77
2023-03-29T05:54:27.367Z,1.87
2023-03-29T05:56:55.332Z,2.30
2023-03-29T05:59:24.619Z,1.87
2023-03-29T06:01:53.158Z,1.20
2023-03-29T06:04:21.400Z,1.63
2023-03-29T06:06:50.025Z,1.50
2023-03-29T06:09:17.996Z,1.43
2023-03-29T06:11:47.879Z,1.43
2023-03-29T06:14:15.927Z,1.60
2023-03-29T06:16:45.164Z,1.57
2023-03-29T06:19:13.139Z,1.30
2023-03-29T06:21:41.422Z,1.53
2023-03-29T06:24:09.527Z,1.23
2023-03-29T06:26:37.503Z,1.40
2023-03-29T06:29:06.882Z,1.67
2023-03-29T06:31:36.386Z,1.63
2023-03-29T06:34:04.949Z,1.40
2023-03-29T06:36:34.524Z,2.13
2023-03-29T06:39:04.109Z,1.30
2023-03-29T06:41:32.037Z,1.40
2023-03-29T06:44:00.011Z,1.87
2023-03-29T06:46:29.482Z,1.47
2023-03-29T06:48:57.679Z,1.83
2023-03-29T06:51:25.679Z,1.50
2023-03-29T06:53:53.599Z,2.10
2023-03-29T06:56:22.620Z,1.60
2023-03-29T06:58:50.648Z,1.23
2023-03-29T07:01:18.630Z,1.40
2023-03-29T07:03:49.497Z,2.40
2023-03-29T07:06:20.582Z,1.50
2023-03-29T07:08:52.176Z,1.50
2023-03-29T07:11:20.505Z,1.40
2023-03-29T07:13:49.319Z,1.87
2023-03-29T07:16:19.421Z,1.40
2023-03-29T07:18:49.004Z,1.70
2023-03-29T07:21:17.484Z,2.00
2023-03-29T07:23:45.429Z,1.40
2023-03-29T07:26:13.613Z,1.83
2023-03-29T07:28:41.607Z,1.70
2023-03-29T07:31:11.277Z,1.67
2023-03-29T07:33:39.573Z,2.13
2023-03-29T07:36:09.798Z,1.33
2023-03-29T07:38:38.164Z,2.20
2023-03-29T07:41:06.882Z,2.27
2023-03-29T07:43:34.992Z,8.67
2023-03-29T07:46:03.284Z,15.80
2023-03-29T07:48:31.263Z,2.80
2023-03-29T07:50:59.434Z,1.80
2023-03-29T07:53:29.844Z,1.43
2023-03-29T07:55:58.001Z,2.07
2023-03-29T07:58:26.004Z,1.87
2023-03-29T08:00:53.993Z,1.70
2023-03-29T08:03:22.151Z,1.90
2023-03-29T08:05:50.208Z,2.43
2023-03-29T08:08:18.249Z,1.60
2023-03-29T08:10:47.679Z,1.90
2023-03-29T08:13:15.591Z,1.80
2023-03-29T08:15:46.460Z,1.77
2023-03-29T08:18:14.665Z,2.07
2023-03-29T08:20:42.700Z,1.80
2023-03-29T08:23:10.984Z,2.13
2023-03-29T08:25:38.920Z,1.70
2023-03-29T08:28:08.250Z,2.13
2023-03-29T08:30:36.387Z,1.40
2023-03-29T08:33:05.063Z,1.80
2023-03-29T08:35:33.136Z,1.60
2023-03-29T08:38:01.161Z,1.70
2023-03-29T08:40:30.218Z,1.90
2023-03-29T08:43:18.243Z,1.80
2023-03-29T08:45:51.291Z,1.80
2023-03-29T08:48:22.396Z,2.13
2023-03-29T08:50:53.092Z,1.83
2023-03-29T08:53:23.921Z,1.80
2023-03-29T08:55:54.052Z,1.70
2023-03-29T08:58:25.702Z,1.70
2023-03-29T09:00:55.436Z,1.70
2023-03-29T09:03:24.454Z,1.47
2023-03-29T09:05:54.783Z,1.13
2023-03-29T09:08:22.930Z,1.50
2023-03-29T09:11:00.771Z,2.07
2023-03-29T09:13:36.259Z,1.90
2023-03-29T09:16:09.461Z,1.70
2023-03-29T09:18:42.047Z,1.90
2023-03-29T09:21:14.897Z,1.93
2023-03-29T09:23:52.584Z,2.70
2023-03-29T09:26:26.047Z,1.87
2023-03-29T09:29:01.112Z,2.17
2023-03-29T09:31:31.107Z,1.83
2023-03-29T09:34:00.019Z,2.00
2023-03-29T09:36:35.028Z,1.43
2023-03-29T09:39:03.574Z,1.43
2023-03-29T09:41:34.822Z,1.60
2023-03-29T09:44:07.357Z,1.90
2023-03-29T09:46:39.458Z,1.50
2023-03-29T09:49:10.478Z,1.77
2023-03-29T09:51:38.837Z,1.53
2023-03-29T09:54:06.918Z,2.27
2023-03-29T09:56:34.913Z,1.53
2023-03-29T09:59:04.536Z,1.70
2023-03-29T10:01:38.665Z,1.40
2023-03-29T10:04:08.081Z,1.43
2023-03-29T10:06:36.915Z,1.80
2023-03-29T10:09:06.152Z,1.80
2023-03-29T10:11:35.606Z,1.50
2023-03-29T10:14:06.713Z,1.60
2023-03-29T10:16:36.330Z,1.47
2023-03-29T10:19:16.547Z,1.90
2023-03-29T10:21:44.535Z,1.53
2023-03-29T10:24:12.527Z,1.40
2023-03-29T10:26:41.531Z,1.80
2023-03-29T10:29:12.531Z,1.90
2023-03-29T10:31:42.779Z,2.10
2023-03-29T10:34:13.722Z,1.53
2023-03-29T10:36:42.799Z,1.63
2023-03-29T10:39:12.289Z,2.30
2023-03-29T10:41:40.565Z,1.70
2023-03-29T10:44:08.643Z,1.80
2023-03-29T10:46:44.127Z,2.47
2023-03-29T10:49:19.163Z,1.37
2023-03-29T10:51:47.711Z,1.60
2023-03-29T10:54:17.456Z,1.60
2023-03-29T10:56:48.615Z,1.50
2023-03-29T10:59:29.263Z,1.60
2023-03-29T11:02:15.760Z,1.27
2023-03-29T11:04:47.132Z,1.50
2023-03-29T11:07:23.737Z,1.60
2023-03-29T11:09:54.192Z,1.37
2023-03-29T11:12:26.629Z,1.33
2023-03-29T11:15:02.257Z,1.90
2023-03-29T11:17:37.034Z,1.90
2023-03-29T11:20:21.003Z,1.60
2023-03-29T11:22:53.467Z,1.40
2023-03-29T11:25:27.808Z,1.80
2023-03-29T11:27:59.831Z,1.60
2023-03-29T11:30:31.515Z,1.83
2023-03-29T11:33:06.402Z,1.73
2023-03-29T11:35:41.880Z,2.17
2023-03-29T11:38:15.104Z,1.67
2023-03-29T11:40:48.162Z,1.43
2023-03-29T11:43:19.324Z,1.60
2023-03-29T11:45:50.694Z,1.40
2023-03-29T11:48:22.607Z,1.30
2023-03-29T11:50:54.658Z,1.50
2023-03-29T11:53:24.382Z,1.70
2023-03-29T11:55:52.591Z,1.63
2023-03-29T11:58:23.403Z,6.47
2023-03-29T12:00:55.479Z,1.50
2023-03-29T12:03:30.271Z,1.63
2023-03-29T12:06:04.568Z,1.73
2023-03-29T12:08:34.834Z,1.30
2023-03-29T12:11:05.572Z,1.57
2023-03-29T12:13:35.461Z,1.77
2023-03-29T12:16:06.947Z,1.40
2023-03-29T12:18:38.020Z,1.30
2023-03-29T12:21:11.055Z,1.37
2023-03-29T12:23:39.483Z,1.40
2023-03-29T12:26:13.672Z,1.60
2023-03-29T12:28:59.923Z,1.40
2023-03-29T12:31:32.723Z,1.30
2023-03-29T12:34:17.018Z,1.50
2023-03-29T12:36:55.590Z,1.10
2023-03-29T12:39:24.251Z,1.00
2023-03-29T12:41:53.696Z,1.80
2023-03-29T12:44:23.520Z,1.10
2023-03-29T12:46:53.394Z,1.40
2023-03-29T12:49:25.709Z,1.80
2023-03-29T12:51:55.748Z,1.40
2023-03-29T12:54:27.894Z,1.63
2023-03-29T12:56:58.430Z,1.23
2023-03-29T12:59:27.635Z,1.30
2023-03-29T13:02:01.826Z,1.77
2023-03-29T13:04:38.591Z,1.77
2023-03-29T13:07:14.780Z,1.47
2023-03-29T13:09:49.450Z,1.30
2023-03-29T13:12:23.218Z,1.10
2023-03-29T13:14:52.320Z,1.20
2023-03-29T13:17:27.100Z,1.23
2023-03-29T13:20:04.117Z,1.37
2023-03-29T13:22:44.425Z,1.60
2023-03-29T13:25:20.216Z,1.03
2023-03-29T13:27:53.042Z,1.30
2023-03-29T13:30:25.283Z,1.00
2023-03-29T13:32:58.021Z,1.00
2023-03-29T13:35:32.650Z,1.03
2023-03-29T13:38:06.714Z,1.43
2023-03-29T13:40:43.493Z,1.20
2023-03-29T13:43:12.548Z,1.27
2023-03-29T13:45:40.654Z,1.17
2023-03-29T13:48:23.007Z,1.33
2023-03-29T13:50:55.932Z,1.03
2023-03-29T13:53:29.220Z,1.10
2023-03-29T13:55:58.972Z,1.20
2023-03-29T13:58:31.722Z,1.20
2023-03-29T14:01:02.682Z,1.57
2023-03-29T14:03:33.649Z,1.00
2023-03-29T14:06:02.775Z,1.07
2023-03-29T14:08:34.702Z,1.23
2023-03-29T14:11:07.104Z,1.00
2023-03-29T14:13:35.758Z,0.97
2023-03-29T14:16:05.459Z,1.10
2023-03-29T14:18:34.835Z,1.33
2023-03-29T14:21:02.924Z,1.20
2023-03-29T14:23:33.854Z,1.10
2023-03-29T14:26:09.297Z,2.00
2023-03-29T14:28:37.805Z,1.23
2023-03-29T14:31:07.998Z,1.20
2023-03-29T14:33:38.183Z,1.23
2023-03-29T14:36:07.208Z,1.17
2023-03-29T14:38:37.841Z,1.60
2023-03-29T14:41:06.034Z,1.27
2023-03-29T14:43:34.031Z,1.57
2023-03-29T14:46:04.099Z,1.50
2023-03-29T14:48:33.455Z,1.50
2023-03-29T14:51:01.851Z,1.47
2023-03-29T14:53:32.464Z,1.47
2023-03-29T14:56:02.320Z,2.13
2023-03-29T14:58:32.469Z,1.50
2023-03-29T15:01:05.261Z,1.43
2023-03-29T15:03:43.161Z,1.60
2023-03-29T15:06:12.006Z,2.17
2023-03-29T15:08:44.058Z,1.43
2023-03-29T15:11:21.948Z,1.97
2023-03-29T15:13:50.461Z,1.37
2023-03-29T15:16:20.747Z,1.10
2023-03-29T15:18:51.125Z,1.40
2023-03-29T15:21:21.889Z,1.40
2023-03-29T15:23:52.876Z,1.20
2023-03-29T15:26:23.745Z,1.57
2023-03-29T15:28:55.756Z,1.40
2023-03-29T15:31:27.734Z,1.83
2023-03-29T15:34:04.043Z,1.50
2023-03-29T15:36:33.552Z,1.10
2023-03-29T15:39:01.899Z,1.67
2023-03-29T15:41:31.339Z,1.77
2023-03-29T15:43:59.313Z,1.33
2023-03-29T15:46:27.651Z,1.00
2023-03-29T15:48:55.826Z,1.40
2023-03-29T15:51:23.753Z,1.37
2023-03-29T15:53:51.733Z,1.60
2023-03-29T15:56:23.081Z,1.47
2023-03-29T15:58:52.412Z,1.60
2023-03-29T16:01:34.592Z,1.17
2023-03-29T16:04:03.091Z,1.60
2023-03-29T16:06:31.260Z,1.80
2023-03-29T16:08:59.291Z,1.30
2023-03-29T16:11:28.516Z,1.10
2023-03-29T16:13:58.260Z,1.43
2023-03-29T16:16:27.332Z,3.03
2023-03-29T16:18:55.328Z,1.30
2023-03-29T16:21:24.625Z,1.90
2023-03-29T16:23:52.652Z,1.90
2023-03-29T16:26:21.876Z,1.90
2023-03-29T16:28:49.811Z,1.60
2023-03-29T16:31:19.158Z,1.50
2023-03-29T16:33:47.104Z,1.70
2023-03-29T16:36:15.092Z,1.70
2023-03-29T16:38:43.055Z,1.60
2023-03-29T16:41:12.516Z,1.90
2023-03-29T16:43:40.565Z,1.67
2023-03-29T16:46:10.482Z,1.40
2023-03-29T16:48:39.944Z,1.40
2023-03-29T16:51:08.305Z,1.63
2023-03-29T16:53:36.235Z,2.13
2023-03-29T16:56:04.482Z,1.77
2023-03-29T16:58:32.652Z,1.33
2023-03-29T17:01:09.908Z,1.53
2023-03-29T17:03:39.362Z,1.60
2023-03-29T17:06:08.059Z,2.23
2023-03-29T17:08:36.639Z,1.80
2023-03-29T17:11:05.138Z,1.77
2023-03-29T17:13:33.253Z,1.90
2023-03-29T17:16:01.478Z,1.70
2023-03-29T17:18:29.794Z,1.47
2023-03-29T17:20:59.500Z,1.60
2023-03-29T17:23:27.503Z,1.47
2023-03-29T17:25:55.796Z,2.00
2023-03-29T17:28:23.749Z,1.93
2023-03-29T17:30:51.812Z,2.20
2023-03-29T17:33:22.850Z,2.00
2023-03-29T17:35:50.932Z,1.80
2023-03-29T17:38:21.293Z,2.00
2023-03-29T17:40:53.289Z,1.60
2023-03-29T17:43:21.670Z,1.53
2023-03-29T17:45:51.539Z,2.27
2023-03-29T17:48:19.967Z,1.93
2023-03-29T17:50:48.158Z,2.00
2023-03-29T17:53:16.175Z,2.50
2023-03-29T17:55:45.576Z,2.50
2023-03-29T17:58:13.549Z,2.50
2023-03-29T18:00:41.734Z,2.10
2023-03-29T18:03:09.855Z,2.50
2023-03-29T18:05:38.008Z,2.47
2023-03-29T18:08:06.172Z,2.60
2023-03-29T18:10:34.213Z,2.23
2023-03-29T18:13:03.758Z,2.20
2023-03-29T18:15:31.857Z,2.43
2023-03-29T18:17:59.955Z,2.20
2023-03-29T18:20:28.005Z,2.17
2023-03-29T18:22:56.268Z,2.20
2023-03-29T18:25:24.261Z,1.97
2023-03-29T18:27:52.399Z,1.73
2023-03-29T18:30:21.819Z,2.67
2023-03-29T18:32:49.880Z,1.97
2023-03-29T18:35:17.906Z,2.20
2023-03-29T18:37:45.843Z,2.10
2023-03-29T18:40:15.710Z,1.83
2023-03-29T18:42:43.710Z,1.80
2023-03-29T18:45:12.338Z,2.03
2023-03-29T18:47:42.126Z,1.80
2023-03-29T18:50:10.664Z,2.37
2023-03-29T18:52:39.162Z,2.00
2023-03-29T18:55:07.737Z,2.57
2023-03-29T18:57:35.918Z,3.00
2023-03-29T19:00:10.638Z,2.80
2023-03-29T19:02:38.801Z,2.67
2023-03-29T19:05:09.107Z,2.43
2023-03-29T19:07:37.342Z,2.33
2023-03-29T19:10:05.729Z,2.43
2023-03-29T19:12:34.036Z,2.43
2023-03-29T19:15:02.198Z,1.90
2023-03-29T19:17:30.257Z,2.80
2023-03-29T19:19:58.526Z,2.90
2023-03-29T19:22:27.875Z,3.20
2023-03-29T19:24:55.868Z,2.00
2023-03-29T19:27:23.877Z,1.93
2023-03-29T19:29:51.890Z,2.10
2023-03-29T19:32:19.911Z,2.33
2023-03-29T19:34:47.909Z,2.07
2023-03-29T19:37:17.650Z,2.30
2023-03-29T19:39:47.129Z,1.93
2023-03-29T19:42:15.277Z,2.10
2023-03-29T19:44:43.222Z,2.47
2023-03-29T19:47:11.584Z,2.17
2023-03-29T19:49:39.737Z,2.87
2023-03-29T19:52:07.715Z,2.43
2023-03-29T19:54:35.855Z,2.00
2023-03-29T19:57:07.491Z,2.13
2023-03-29T19:59:35.916Z,2.03
2023-03-29T20:02:03.916Z,2.20
2023-03-29T20:04:33.363Z,2.50
2023-03-29T20:07:01.519Z,2.70
2023-03-29T20:09:29.507Z,2.50
2023-03-29T20:11:57.859Z,2.47
2023-03-29T20:14:27.690Z,2.70
2023-03-29T20:16:56.287Z,2.43
2023-03-29T20:19:25.598Z,2.70
2023-03-29T20:21:55.225Z,2.93
2023-03-29T20:24:23.393Z,2.47
2023-03-29T20:26:51.587Z,2.63
2023-03-29T20:29:19.937Z,2.80
2023-03-29T20:31:49.438Z,2.40
2023-03-29T20:34:18.411Z,3.10
2023-03-29T20:36:46.805Z,2.67
2023-03-29T20:39:17.956Z,2.57
2023-03-29T20:41:47.823Z,2.40
2023-03-29T20:44:16.974Z,3.13
2023-03-29T20:46:54.592Z,2.47
2023-03-29T20:49:27.704Z,2.03
2023-03-29T20:51:58.831Z,2.60
2023-03-29T20:54:27.162Z,2.50
2023-03-29T20:56:56.187Z,2.47
2023-03-29T20:59:24.216Z,2.87
2023-03-29T21:01:52.335Z,2.50
2023-03-29T21:04:20.473Z,2.53
2023-03-29T21:06:50.536Z,3.33
2023-03-29T21:09:19.279Z,3.20
2023-03-29T21:11:47.270Z,3.00
2023-03-29T21:14:19.669Z,2.90
2023-03-29T21:16:47.844Z,2.80
2023-03-29T21:19:16.389Z,3.03
2023-03-29T21:21:44.982Z,3.20
2023-03-29T21:24:14.608Z,2.60
2023-03-29T21:26:42.652Z,2.73
2023-03-29T21:29:10.676Z,2.77
2023-03-29T21:31:39.016Z,3.23
2023-03-29T21:34:07.137Z,3.40
2023-03-29T21:36:35.131Z,2.67
2023-03-29T21:39:03.089Z,3.60
2023-03-29T21:41:32.718Z,2.63
2023-03-29T21:44:00.870Z,3.07
2023-03-29T21:46:28.919Z,3.00
2023-03-29T21:48:56.853Z,2.97
2023-03-29T21:51:24.857Z,3.13
2023-03-29T21:53:52.854Z,3.33
2023-03-29T21:56:20.811Z,3.10
2023-03-29T21:58:50.150Z,3.53
2023-03-29T22:01:18.158Z,2.83
2023-03-29T22:03:46.463Z,3.83
2023-03-29T22:06:15.194Z,2.77
2023-03-29T22:08:43.161Z,2.70
2023-03-29T22:11:14.032Z,3.47
2023-03-29T22:13:42.249Z,2.97
2023-03-29T22:16:14.007Z,3.20
2023-03-29T22:18:47.050Z,2.93
2023-03-29T22:21:16.236Z,3.27
2023-03-29T22:23:45.354Z,3.27
2023-03-29T22:26:14.120Z,3.27
2023-03-29T22:28:42.086Z,3.30
2023-03-29T22:31:12.295Z,3.03
2023-03-29T22:33:40.987Z,3.60
2023-03-29T22:36:13.538Z,3.23
2023-03-29T22:38:41.553Z,3.57
2023-03-29T22:41:09.613Z,3.50
2023-03-29T22:43:37.938Z,3.20
2023-03-29T22:46:06.222Z,3.30
2023-03-29T22:48:35.808Z,3.60
2023-03-29T22:51:04.192Z,3.00
2023-03-29T22:53:32.784Z,3.40
2023-03-29T22:56:01.017Z,3.67
2023-03-29T22:58:29.639Z,4.50
2023-03-29T23:00:58.346Z,12.17
2023-03-29T23:03:26.764Z,4.47
2023-03-29T23:05:57.067Z,4.40
2023-03-29T23:08:25.621Z,3.27
2023-03-29T23:10:53.908Z,3.60
2023-03-29T23:13:25.993Z,3.33
2023-03-29T23:15:55.207Z,3.73
2023-03-29T23:18:24.217Z,3.27
2023-03-29T23:20:53.406Z,3.70
2023-03-29T23:23:23.125Z,3.73
2023-03-29T23:25:51.925Z,3.37
2023-03-29T23:28:21.849Z,3.07
2023-03-29T23:30:55.381Z,3.37
2023-03-29T23:33:23.537Z,3.33
2023-03-29T23:35:51.490Z,3.03
2023-03-29T23:38:19.458Z,3.60
2023-03-29T23:40:55.277Z,3.40
2023-03-29T23:43:23.251Z,2.97
2023-03-29T23:45:56.798Z,2.97
2023-03-29T23:48:25.057Z,3.10
2023-03-29T23:50:53.007Z,3.23
2023-03-29T23:53:21.254Z,3.20
2023-03-29T23:55:49.612Z,3.10
2023-03-29T23:58:18.950Z,3.07
